sensor_id;sensor_type;location;lat;lon;timestamp;P1;durP1;ratioP1;P2;durP2;ratioP2
69256;SDS011;56376;53.356;-1.748;2023-05-16T00:01:31;4.72;;;1.63;;
69256;SDS011;56376;53.356;-1.748;2023-05-16T00:03:59;4.23;;;1.67;;
69256;SDS011;56376;53.356;-1.748;2023-05-16T00:06:25;2.15;;;1.05;;
69256;SDS011;56376;53.356;-1.748;2023-05-16T00:08:50;3.50;;;1.33;;
69256;SDS011;56376;53.356;-1.748;2023-05-16T00:11:16;3.73;;;1.23;;
69256;SDS011;56376;53.356;-1.748;2023-05-16T00:13:41;2.73;;;1.10;;
69256;SDS011;56376;53.356;-1.748;2023-05-16T00:16:07;3.20;;;1.30;;
69256;SDS011;56376;53.356;-1.748;2023-05-16T00:18:33;2.47;;;1.10;;
69256;SDS011;56376;53.356;-1.748;2023-05-16T00:21:01;2.27;;;1.10;;
69256;SDS011;56376;53.356;-1.748;2023-05-16T00:23:30;3.50;;;1.63;;
69256;SDS011;56376;53.356;-1.748;2023-05-16T00:25:56;4.90;;;1.60;;
69256;SDS011;56376;53.356;-1.748;2023-05-16T00:28:21;4.57;;;1.40;;
69256;SDS011;56376;53.356;-1.748;2023-05-16T00:30:46;3.92;;;1.55;;
69256;SDS011;56376;53.356;-1.748;2023-05-16T00:33:12;3.53;;;1.40;;
69256;SDS011;56376;53.356;-1.748;2023-05-16T00:35:37;3.13;;;1.37;;
69256;SDS011;56376;53.356;-1.748;2023-05-16T00:38:03;5.23;;;1.67;;
69256;SDS011;56376;53.356;-1.748;2023-05-16T00:40:28;2.50;;;1.23;;
69256;SDS011;56376;53.356;-1.748;2023-05-16T00:42:55;2.90;;;1.10;;
69256;SDS011;56376;53.356;-1.748;2023-05-16T00:45:20;4.63;;;2.23;;
69256;SDS011;56376;53.356;-1.748;2023-05-16T00:47:46;3.40;;;1.30;;
69256;SDS011;56376;53.356;-1.748;2023-05-16T00:50:11;4.33;;;1.60;;
69256;SDS011;56376;53.356;-1.748;2023-05-16T00:52:37;3.80;;;1.43;;
69256;SDS011;56376;53.356;-1.748;2023-05-16T00:55:03;5.77;;;1.50;;
69256;SDS011;56376;53.356;-1.748;2023-05-16T00:57:29;8.63;;;2.53;;
69256;SDS011;56376;53.356;-1.748;2023-05-16T00:59:55;6.47;;;1.87;;
69256;SDS011;56376;53.356;-1.748;2023-05-16T01:02:20;5.10;;;1.80;;
69256;SDS011;56376;53.356;-1.748;2023-05-16T01:04:46;7.63;;;2.77;;
69256;SDS011;56376;53.356;-1.748;2023-05-16T01:07:12;7.87;;;2.20;;
69256;SDS011;56376;53.356;-1.748;2023-05-16T01:09:38;6.87;;;2.23;;
69256;SDS011;56376;53.356;-1.748;2023-05-16T01:19:54;5.97;;;2.07;;
69256;SDS011;56376;53.356;-1.748;2023-05-16T01:22:35;6.53;;;2.00;;
69256;SDS011;56376;53.356;-1.748;2023-05-16T01:27:45;6.10;;;1.80;;
69256;SDS011;56376;53.356;-1.748;2023-05-16T01:30:15;4.00;;;1.73;;
69256;SDS011;56376;53.356;-1.748;2023-05-16T01:32:42;4.73;;;1.53;;
69256;SDS011;56376;53.356;-1.748;2023-05-16T01:35:08;5.17;;;2.13;;
69256;SDS011;56376;53.356;-1.748;2023-05-16T01:37:38;4.13;;;1.60;;
69256;SDS011;56376;53.356;-1.748;2023-05-16T01:42:47;2.65;;;1.70;;
69256;SDS011;56376;53.356;-1.748;2023-05-16T01:45:21;4.63;;;1.53;;
69256;SDS011;56376;53.356;-1.748;2023-05-16T01:48:12;5.97;;;2.58;;
69256;SDS011;56376;53.356;-1.748;2023-05-16T01:50:44;7.60;;;2.13;;
69256;SDS011;56376;53.356;-1.748;2023-05-16T01:53:13;5.07;;;1.80;;
69256;SDS011;56376;53.356;-1.748;2023-05-16T01:55:47;4.90;;;1.70;;
69256;SDS011;56376;53.356;-1.748;2023-05-16T01:58:16;7.13;;;1.93;;
69256;SDS011;56376;53.356;-1.748;2023-05-16T02:00:44;4.13;;;1.60;;
69256;SDS011;56376;53.356;-1.748;2023-05-16T02:03:10;6.10;;;2.30;;
69256;SDS011;56376;53.356;-1.748;2023-05-16T02:05:35;4.40;;;2.03;;
69256;SDS011;56376;53.356;-1.748;2023-05-16T02:08:00;8.40;;;2.90;;
69256;SDS011;56376;53.356;-1.748;2023-05-16T02:10:27;6.30;;;1.80;;
69256;SDS011;56376;53.356;-1.748;2023-05-16T02:12:52;5.27;;;2.40;;
69256;SDS011;56376;53.356;-1.748;2023-05-16T02:15:18;10.37;;;2.30;;
69256;SDS011;56376;53.356;-1.748;2023-05-16T02:17:43;3.77;;;1.87;;
69256;SDS011;56376;53.356;-1.748;2023-05-16T02:20:09;6.17;;;1.80;;
69256;SDS011;56376;53.356;-1.748;2023-05-16T02:22:35;7.00;;;2.67;;
69256;SDS011;56376;53.356;-1.748;2023-05-16T02:25:03;4.43;;;1.97;;
69256;SDS011;56376;53.356;-1.748;2023-05-16T02:27:29;6.10;;;1.87;;
69256;SDS011;56376;53.356;-1.748;2023-05-16T02:29:54;5.37;;;1.93;;
69256;SDS011;56376;53.356;-1.748;2023-05-16T02:32:20;9.73;;;2.60;;
69256;SDS011;56376;53.356;-1.748;2023-05-16T02:34:45;6.67;;;2.10;;
69256;SDS011;56376;53.356;-1.748;2023-05-16T02:37:11;5.73;;;2.27;;
69256;SDS011;56376;53.356;-1.748;2023-05-16T02:39:36;7.90;;;2.67;;
69256;SDS011;56376;53.356;-1.748;2023-05-16T02:42:02;6.83;;;2.63;;
69256;SDS011;56376;53.356;-1.748;2023-05-16T02:44:28;5.77;;;2.17;;
69256;SDS011;56376;53.356;-1.748;2023-05-16T02:46:53;4.70;;;2.70;;
69256;SDS011;56376;53.356;-1.748;2023-05-16T02:49:19;7.20;;;2.00;;
69256;SDS011;56376;53.356;-1.748;2023-05-16T02:51:44;4.50;;;1.80;;
69256;SDS011;56376;53.356;-1.748;2023-05-16T02:54:10;6.50;;;1.90;;
69256;SDS011;56376;53.356;-1.748;2023-05-16T02:56:35;2.90;;;1.53;;
69256;SDS011;56376;53.356;-1.748;2023-05-16T02:59:01;3.73;;;2.00;;
69256;SDS011;56376;53.356;-1.748;2023-05-16T03:01:28;4.73;;;1.70;;
69256;SDS011;56376;53.356;-1.748;2023-05-16T03:03:53;3.70;;;1.60;;
69256;SDS011;56376;53.356;-1.748;2023-05-16T03:06:19;6.17;;;2.07;;
69256;SDS011;56376;53.356;-1.748;2023-05-16T03:08:46;5.73;;;2.03;;
69256;SDS011;56376;53.356;-1.748;2023-05-16T03:11:12;8.57;;;2.93;;
69256;SDS011;56376;53.356;-1.748;2023-05-16T03:13:38;5.43;;;2.00;;
69256;SDS011;56376;53.356;-1.748;2023-05-16T03:16:04;7.13;;;2.60;;
69256;SDS011;56376;53.356;-1.748;2023-05-16T03:18:29;8.03;;;2.50;;
69256;SDS011;56376;53.356;-1.748;2023-05-16T03:20:55;8.63;;;2.47;;
69256;SDS011;56376;53.356;-1.748;2023-05-16T03:23:21;10.80;;;2.83;;
69256;SDS011;56376;53.356;-1.748;2023-05-16T03:25:47;7.17;;;2.03;;
69256;SDS011;56376;53.356;-1.748;2023-05-16T03:28:12;5.43;;;2.17;;
69256;SDS011;56376;53.356;-1.748;2023-05-16T03:30:38;11.57;;;3.60;;
69256;SDS011;56376;53.356;-1.748;2023-05-16T03:33:03;5.47;;;1.90;;
69256;SDS011;56376;53.356;-1.748;2023-05-16T03:35:31;7.97;;;2.90;;
69256;SDS011;56376;53.356;-1.748;2023-05-16T03:37:57;7.13;;;3.13;;
69256;SDS011;56376;53.356;-1.748;2023-05-16T03:40:22;7.13;;;2.20;;
69256;SDS011;56376;53.356;-1.748;2023-05-16T03:42:48;6.57;;;2.43;;
69256;SDS011;56376;53.356;-1.748;2023-05-16T03:45:14;4.77;;;2.13;;
69256;SDS011;56376;53.356;-1.748;2023-05-16T03:47:39;4.90;;;1.93;;
69256;SDS011;56376;53.356;-1.748;2023-05-16T03:50:05;5.33;;;2.10;;
69256;SDS011;56376;53.356;-1.748;2023-05-16T03:52:31;7.30;;;2.00;;
69256;SDS011;56376;53.356;-1.748;2023-05-16T03:54:57;6.03;;;1.90;;
69256;SDS011;56376;53.356;-1.748;2023-05-16T03:57:22;7.13;;;2.23;;
69256;SDS011;56376;53.356;-1.748;2023-05-16T03:59:47;6.10;;;2.03;;
69256;SDS011;56376;53.356;-1.748;2023-05-16T04:02:13;5.87;;;2.00;;
69256;SDS011;56376;53.356;-1.748;2023-05-16T04:04:39;4.47;;;2.40;;
69256;SDS011;56376;53.356;-1.748;2023-05-16T04:07:04;6.47;;;3.07;;
69256;SDS011;56376;53.356;-1.748;2023-05-16T04:09:30;5.33;;;1.80;;
69256;SDS011;56376;53.356;-1.748;2023-05-16T04:11:56;4.77;;;1.83;;
69256;SDS011;56376;53.356;-1.748;2023-05-16T04:14:22;2.83;;;1.70;;
69256;SDS011;56376;53.356;-1.748;2023-05-16T04:16:48;4.90;;;1.50;;
69256;SDS011;56376;53.356;-1.748;2023-05-16T04:19:13;7.87;;;2.00;;
69256;SDS011;56376;53.356;-1.748;2023-05-16T04:21:38;10.67;;;2.60;;
69256;SDS011;56376;53.356;-1.748;2023-05-16T04:24:04;6.20;;;1.80;;
69256;SDS011;56376;53.356;-1.748;2023-05-16T04:26:30;4.23;;;1.83;;
69256;SDS011;56376;53.356;-1.748;2023-05-16T04:28:55;3.57;;;1.73;;
69256;SDS011;56376;53.356;-1.748;2023-05-16T04:31:22;5.20;;;2.40;;
69256;SDS011;56376;53.356;-1.748;2023-05-16T04:33:49;4.37;;;1.70;;
69256;SDS011;56376;53.356;-1.748;2023-05-16T04:36:14;4.60;;;1.77;;
69256;SDS011;56376;53.356;-1.748;2023-05-16T04:38:40;6.17;;;2.20;;
69256;SDS011;56376;53.356;-1.748;2023-05-16T04:41:05;4.10;;;2.43;;
69256;SDS011;56376;53.356;-1.748;2023-05-16T04:43:31;1.93;;;1.30;;
69256;SDS011;56376;53.356;-1.748;2023-05-16T04:45:56;2.37;;;1.40;;
69256;SDS011;56376;53.356;-1.748;2023-05-16T04:48:25;4.73;;;1.50;;
69256;SDS011;56376;53.356;-1.748;2023-05-16T04:50:50;3.57;;;1.60;;
69256;SDS011;56376;53.356;-1.748;2023-05-16T04:53:16;2.33;;;1.40;;
69256;SDS011;56376;53.356;-1.748;2023-05-16T04:55:41;1.33;;;1.00;;
69256;SDS011;56376;53.356;-1.748;2023-05-16T04:58:07;2.53;;;1.07;;
69256;SDS011;56376;53.356;-1.748;2023-05-16T05:00:33;2.20;;;1.23;;
69256;SDS011;56376;53.356;-1.748;2023-05-16T05:02:58;4.27;;;1.60;;
69256;SDS011;56376;53.356;-1.748;2023-05-16T05:05:24;4.23;;;1.57;;
69256;SDS011;56376;53.356;-1.748;2023-05-16T05:07:49;1.90;;;1.00;;
69256;SDS011;56376;53.356;-1.748;2023-05-16T05:10:15;1.63;;;1.07;;
69256;SDS011;56376;53.356;-1.748;2023-05-16T05:12:40;2.70;;;1.47;;
69256;SDS011;56376;53.356;-1.748;2023-05-16T05:15:05;3.50;;;1.20;;
69256;SDS011;56376;53.356;-1.748;2023-05-16T05:17:31;4.77;;;1.30;;
69256;SDS011;56376;53.356;-1.748;2023-05-16T05:19:57;3.87;;;1.13;;
69256;SDS011;56376;53.356;-1.748;2023-05-16T05:22:22;4.50;;;1.90;;
69256;SDS011;56376;53.356;-1.748;2023-05-16T05:24:47;6.80;;;1.70;;
69256;SDS011;56376;53.356;-1.748;2023-05-16T05:27:13;2.60;;;1.53;;
69256;SDS011;56376;53.356;-1.748;2023-05-16T05:29:38;3.70;;;1.43;;
69256;SDS011;56376;53.356;-1.748;2023-05-16T05:32:04;3.17;;;1.50;;
69256;SDS011;56376;53.356;-1.748;2023-05-16T05:34:30;2.93;;;1.40;;
69256;SDS011;56376;53.356;-1.748;2023-05-16T05:36:55;2.00;;;1.43;;
69256;SDS011;56376;53.356;-1.748;2023-05-16T05:39:21;5.10;;;2.23;;
69256;SDS011;56376;53.356;-1.748;2023-05-16T05:41:46;3.17;;;1.40;;
69256;SDS011;56376;53.356;-1.748;2023-05-16T05:44:12;4.93;;;1.53;;
69256;SDS011;56376;53.356;-1.748;2023-05-16T05:46:37;4.97;;;1.50;;
69256;SDS011;56376;53.356;-1.748;2023-05-16T05:49:03;5.40;;;1.70;;
69256;SDS011;56376;53.356;-1.748;2023-05-16T05:51:29;7.83;;;1.83;;
69256;SDS011;56376;53.356;-1.748;2023-05-16T05:53:55;4.23;;;1.63;;
69256;SDS011;56376;53.356;-1.748;2023-05-16T05:56:21;3.23;;;1.60;;
69256;SDS011;56376;53.356;-1.748;2023-05-16T05:58:48;5.10;;;1.80;;
69256;SDS011;56376;53.356;-1.748;2023-05-16T06:01:14;5.07;;;2.30;;
69256;SDS011;56376;53.356;-1.748;2023-05-16T06:03:40;6.53;;;1.93;;
69256;SDS011;56376;53.356;-1.748;2023-05-16T06:06:05;3.67;;;1.63;;
69256;SDS011;56376;53.356;-1.748;2023-05-16T06:08:31;5.23;;;1.67;;
69256;SDS011;56376;53.356;-1.748;2023-05-16T06:10:56;4.23;;;2.17;;
69256;SDS011;56376;53.356;-1.748;2023-05-16T06:13:22;3.53;;;1.40;;
69256;SDS011;56376;53.356;-1.748;2023-05-16T06:15:51;5.33;;;1.63;;
69256;SDS011;56376;53.356;-1.748;2023-05-16T06:18:17;4.53;;;2.10;;
69256;SDS011;56376;53.356;-1.748;2023-05-16T06:20:42;3.83;;;1.47;;
69256;SDS011;56376;53.356;-1.748;2023-05-16T06:23:08;2.58;;;1.42;;
69256;SDS011;56376;53.356;-1.748;2023-05-16T06:25:33;5.83;;;1.80;;
69256;SDS011;56376;53.356;-1.748;2023-05-16T06:27:58;4.20;;;1.67;;
69256;SDS011;56376;53.356;-1.748;2023-05-16T06:30:24;3.67;;;1.75;;
69256;SDS011;56376;53.356;-1.748;2023-05-16T06:32:49;4.70;;;1.50;;
69256;SDS011;56376;53.356;-1.748;2023-05-16T06:35:15;6.22;;;1.52;;
69256;SDS011;56376;53.356;-1.748;2023-05-16T06:37:40;4.47;;;1.40;;
69256;SDS011;56376;53.356;-1.748;2023-05-16T06:40:06;5.10;;;1.60;;
69256;SDS011;56376;53.356;-1.748;2023-05-16T06:42:31;4.30;;;1.60;;
69256;SDS011;56376;53.356;-1.748;2023-05-16T06:44:57;5.07;;;1.60;;
69256;SDS011;56376;53.356;-1.748;2023-05-16T06:47:22;5.32;;;1.83;;
69256;SDS011;56376;53.356;-1.748;2023-05-16T06:49:48;3.80;;;1.35;;
69256;SDS011;56376;53.356;-1.748;2023-05-16T06:52:14;3.67;;;1.40;;
69256;SDS011;56376;53.356;-1.748;2023-05-16T06:54:40;4.70;;;1.45;;
69256;SDS011;56376;53.356;-1.748;2023-05-16T06:57:05;4.43;;;1.50;;
69256;SDS011;56376;53.356;-1.748;2023-05-16T06:59:32;5.05;;;1.70;;
69256;SDS011;56376;53.356;-1.748;2023-05-16T07:01:59;3.85;;;1.40;;
69256;SDS011;56376;53.356;-1.748;2023-05-16T07:04:25;4.90;;;1.60;;
69256;SDS011;56376;53.356;-1.748;2023-05-16T07:06:51;3.40;;;1.50;;
69256;SDS011;56376;53.356;-1.748;2023-05-16T07:09:17;6.90;;;2.00;;
69256;SDS011;56376;53.356;-1.748;2023-05-16T07:11:42;4.10;;;1.75;;
69256;SDS011;56376;53.356;-1.748;2023-05-16T07:14:07;4.50;;;1.90;;
69256;SDS011;56376;53.356;-1.748;2023-05-16T07:16:33;5.10;;;1.83;;
69256;SDS011;56376;53.356;-1.748;2023-05-16T07:18:59;4.20;;;1.95;;
69256;SDS011;56376;53.356;-1.748;2023-05-16T07:21:24;2.58;;;1.77;;
69256;SDS011;56376;53.356;-1.748;2023-05-16T07:23:50;5.90;;;2.00;;
69256;SDS011;56376;53.356;-1.748;2023-05-16T07:26:15;3.90;;;1.90;;
69256;SDS011;56376;53.356;-1.748;2023-05-16T07:28:41;3.85;;;2.65;;
69256;SDS011;56376;53.356;-1.748;2023-05-16T07:31:06;5.10;;;2.03;;
69256;SDS011;56376;53.356;-1.748;2023-05-16T07:33:32;4.57;;;1.80;;
69256;SDS011;56376;53.356;-1.748;2023-05-16T07:35:57;4.85;;;1.70;;
69256;SDS011;56376;53.356;-1.748;2023-05-16T07:38:23;7.22;;;2.45;;
69256;SDS011;56376;53.356;-1.748;2023-05-16T07:40:48;6.78;;;2.25;;
69256;SDS011;56376;53.356;-1.748;2023-05-16T07:43:14;5.70;;;2.22;;
69256;SDS011;56376;53.356;-1.748;2023-05-16T07:45:39;5.70;;;2.20;;
69256;SDS011;56376;53.356;-1.748;2023-05-16T07:48:05;6.65;;;2.00;;
69256;SDS011;56376;53.356;-1.748;2023-05-16T07:50:30;5.95;;;2.20;;
69256;SDS011;56376;53.356;-1.748;2023-05-16T07:52:55;3.95;;;2.28;;
69256;SDS011;56376;53.356;-1.748;2023-05-16T07:55:21;5.40;;;2.22;;
69256;SDS011;56376;53.356;-1.748;2023-05-16T07:57:47;8.25;;;2.67;;
69256;SDS011;56376;53.356;-1.748;2023-05-16T08:00:13;4.78;;;2.42;;
69256;SDS011;56376;53.356;-1.748;2023-05-16T08:02:39;7.03;;;2.35;;
69256;SDS011;56376;53.356;-1.748;2023-05-16T08:05:05;5.50;;;2.53;;
69256;SDS011;56376;53.356;-1.748;2023-05-16T08:07:31;7.53;;;2.58;;
69256;SDS011;56376;53.356;-1.748;2023-05-16T08:09:57;4.80;;;2.53;;
69256;SDS011;56376;53.356;-1.748;2023-05-16T08:12:22;4.85;;;2.72;;
69256;SDS011;56376;53.356;-1.748;2023-05-16T08:14:48;4.53;;;2.55;;
69256;SDS011;56376;53.356;-1.748;2023-05-16T08:17:14;5.90;;;2.97;;
69256;SDS011;56376;53.356;-1.748;2023-05-16T08:19:39;9.57;;;3.60;;
69256;SDS011;56376;53.356;-1.748;2023-05-16T08:22:05;8.50;;;3.90;;
69256;SDS011;56376;53.356;-1.748;2023-05-16T08:24:31;6.53;;;3.75;;
69256;SDS011;56376;53.356;-1.748;2023-05-16T08:26:57;10.25;;;4.07;;
69256;SDS011;56376;53.356;-1.748;2023-05-16T08:29:22;5.20;;;3.20;;
69256;SDS011;56376;53.356;-1.748;2023-05-16T08:31:47;7.82;;;3.28;;
69256;SDS011;56376;53.356;-1.748;2023-05-16T08:34:13;7.07;;;3.42;;
69256;SDS011;56376;53.356;-1.748;2023-05-16T08:36:38;6.68;;;3.08;;
69256;SDS011;56376;53.356;-1.748;2023-05-16T08:39:04;8.15;;;3.47;;
69256;SDS011;56376;53.356;-1.748;2023-05-16T08:41:29;4.20;;;3.10;;
69256;SDS011;56376;53.356;-1.748;2023-05-16T08:43:55;6.03;;;4.10;;
69256;SDS011;56376;53.356;-1.748;2023-05-16T08:46:21;8.43;;;3.20;;
69256;SDS011;56376;53.356;-1.748;2023-05-16T08:48:51;6.15;;;3.90;;
69256;SDS011;56376;53.356;-1.748;2023-05-16T08:51:18;6.70;;;3.78;;
69256;SDS011;56376;53.356;-1.748;2023-05-16T08:53:47;6.45;;;4.03;;
69256;SDS011;56376;53.356;-1.748;2023-05-16T08:56:16;6.88;;;4.05;;
69256;SDS011;56376;53.356;-1.748;2023-05-16T08:58:42;5.40;;;3.50;;
69256;SDS011;56376;53.356;-1.748;2023-05-16T09:01:08;4.95;;;3.22;;
69256;SDS011;56376;53.356;-1.748;2023-05-16T09:03:35;6.38;;;3.53;;
69256;SDS011;56376;53.356;-1.748;2023-05-16T09:06:03;8.48;;;4.15;;
69256;SDS011;56376;53.356;-1.748;2023-05-16T09:08:29;9.32;;;4.43;;
69256;SDS011;56376;53.356;-1.748;2023-05-16T09:10:54;8.45;;;3.90;;
69256;SDS011;56376;53.356;-1.748;2023-05-16T09:13:20;7.32;;;4.75;;
69256;SDS011;56376;53.356;-1.748;2023-05-16T09:15:45;8.73;;;4.15;;
69256;SDS011;56376;53.356;-1.748;2023-05-16T09:18:33;7.35;;;4.30;;
69256;SDS011;56376;53.356;-1.748;2023-05-16T09:20:59;9.98;;;4.22;;
69256;SDS011;56376;53.356;-1.748;2023-05-16T09:23:25;7.05;;;3.88;;
69256;SDS011;56376;53.356;-1.748;2023-05-16T09:25:54;9.63;;;4.28;;
69256;SDS011;56376;53.356;-1.748;2023-05-16T09:28:19;9.95;;;4.60;;
69256;SDS011;56376;53.356;-1.748;2023-05-16T09:30:45;8.95;;;4.25;;
69256;SDS011;56376;53.356;-1.748;2023-05-16T09:33:11;7.82;;;3.78;;
69256;SDS011;56376;53.356;-1.748;2023-05-16T09:35:36;8.88;;;5.03;;
69256;SDS011;56376;53.356;-1.748;2023-05-16T09:38:02;10.93;;;4.93;;
69256;SDS011;56376;53.356;-1.748;2023-05-16T09:40:28;8.20;;;4.30;;
69256;SDS011;56376;53.356;-1.748;2023-05-16T09:43:03;7.05;;;3.85;;
69256;SDS011;56376;53.356;-1.748;2023-05-16T09:45:33;8.82;;;5.03;;
69256;SDS011;56376;53.356;-1.748;2023-05-16T09:48:03;12.57;;;5.68;;
69256;SDS011;56376;53.356;-1.748;2023-05-16T09:50:31;10.55;;;5.07;;
69256;SDS011;56376;53.356;-1.748;2023-05-16T09:52:58;11.60;;;4.93;;
69256;SDS011;56376;53.356;-1.748;2023-05-16T09:55:24;10.10;;;4.93;;
69256;SDS011;56376;53.356;-1.748;2023-05-16T09:57:49;11.70;;;5.28;;
69256;SDS011;56376;53.356;-1.748;2023-05-16T10:00:15;12.27;;;5.43;;
69256;SDS011;56376;53.356;-1.748;2023-05-16T10:02:41;8.52;;;4.50;;
69256;SDS011;56376;53.356;-1.748;2023-05-16T10:05:07;10.68;;;4.47;;
69256;SDS011;56376;53.356;-1.748;2023-05-16T10:07:33;8.40;;;4.57;;
69256;SDS011;56376;53.356;-1.748;2023-05-16T10:09:59;8.38;;;4.60;;
69256;SDS011;56376;53.356;-1.748;2023-05-16T10:12:29;9.15;;;4.63;;
69256;SDS011;56376;53.356;-1.748;2023-05-16T10:14:56;10.65;;;4.65;;
69256;SDS011;56376;53.356;-1.748;2023-05-16T10:17:21;10.40;;;4.78;;
69256;SDS011;56376;53.356;-1.748;2023-05-16T10:19:49;10.10;;;4.65;;
69256;SDS011;56376;53.356;-1.748;2023-05-16T10:22:17;12.00;;;4.95;;
69256;SDS011;56376;53.356;-1.748;2023-05-16T10:24:47;17.02;;;5.47;;
69256;SDS011;56376;53.356;-1.748;2023-05-16T10:27:21;12.77;;;5.03;;
69256;SDS011;56376;53.356;-1.748;2023-05-16T10:29:48;8.50;;;4.63;;
69256;SDS011;56376;53.356;-1.748;2023-05-16T10:32:15;11.60;;;4.93;;
69256;SDS011;56376;53.356;-1.748;2023-05-16T10:34:41;12.10;;;5.00;;
69256;SDS011;56376;53.356;-1.748;2023-05-16T10:37:07;12.25;;;4.70;;
69256;SDS011;56376;53.356;-1.748;2023-05-16T10:39:33;9.45;;;4.45;;
69256;SDS011;56376;53.356;-1.748;2023-05-16T10:42:01;12.10;;;5.40;;
69256;SDS011;56376;53.356;-1.748;2023-05-16T10:44:26;15.18;;;5.00;;
69256;SDS011;56376;53.356;-1.748;2023-05-16T10:46:57;12.20;;;4.90;;
69256;SDS011;56376;53.356;-1.748;2023-05-16T10:49:23;14.52;;;5.50;;
69256;SDS011;56376;53.356;-1.748;2023-05-16T10:52:03;7.82;;;4.60;;
69256;SDS011;56376;53.356;-1.748;2023-05-16T10:54:35;13.48;;;4.90;;
69256;SDS011;56376;53.356;-1.748;2023-05-16T10:57:05;9.73;;;4.75;;
69256;SDS011;56376;53.356;-1.748;2023-05-16T10:59:44;12.13;;;4.68;;
69256;SDS011;56376;53.356;-1.748;2023-05-16T11:02:24;10.23;;;4.38;;
69256;SDS011;56376;53.356;-1.748;2023-05-16T11:04:54;7.65;;;4.18;;
69256;SDS011;56376;53.356;-1.748;2023-05-16T11:07:21;10.45;;;4.30;;
69256;SDS011;56376;53.356;-1.748;2023-05-16T11:12:42;12.45;;;5.00;;
69256;SDS011;56376;53.356;-1.748;2023-05-16T11:15:18;15.32;;;5.55;;
69256;SDS011;56376;53.356;-1.748;2023-05-16T11:18:02;15.10;;;4.88;;
69256;SDS011;56376;53.356;-1.748;2023-05-16T11:20:38;10.88;;;4.68;;
69256;SDS011;56376;53.356;-1.748;2023-05-16T11:23:24;10.18;;;4.30;;
69256;SDS011;56376;53.356;-1.748;2023-05-16T11:25:51;9.90;;;4.25;;
69256;SDS011;56376;53.356;-1.748;2023-05-16T11:28:21;9.35;;;4.25;;
69256;SDS011;56376;53.356;-1.748;2023-05-16T11:30:50;8.95;;;4.65;;
69256;SDS011;56376;53.356;-1.748;2023-05-16T11:33:19;8.43;;;4.72;;
69256;SDS011;56376;53.356;-1.748;2023-05-16T11:38:30;8.85;;;4.35;;
69256;SDS011;56376;53.356;-1.748;2023-05-16T11:41:02;10.63;;;3.88;;
69256;SDS011;56376;53.356;-1.748;2023-05-16T11:43:41;8.80;;;3.80;;
69256;SDS011;56376;53.356;-1.748;2023-05-16T11:46:12;9.68;;;4.85;;
69256;SDS011;56376;53.356;-1.748;2023-05-16T11:48:38;10.75;;;3.78;;
69256;SDS011;56376;53.356;-1.748;2023-05-16T11:51:04;8.90;;;4.05;;
69256;SDS011;56376;53.356;-1.748;2023-05-16T11:53:30;13.00;;;4.28;;
69256;SDS011;56376;53.356;-1.748;2023-05-16T11:55:55;12.00;;;4.15;;
69256;SDS011;56376;53.356;-1.748;2023-05-16T11:58:24;11.45;;;4.13;;
69256;SDS011;56376;53.356;-1.748;2023-05-16T12:00:50;12.57;;;4.30;;
69256;SDS011;56376;53.356;-1.748;2023-05-16T12:03:16;12.98;;;4.57;;
69256;SDS011;56376;53.356;-1.748;2023-05-16T12:05:48;13.80;;;4.47;;
69256;SDS011;56376;53.356;-1.748;2023-05-16T12:08:18;9.43;;;4.07;;
69256;SDS011;56376;53.356;-1.748;2023-05-16T12:10:45;10.43;;;4.18;;
69256;SDS011;56376;53.356;-1.748;2023-05-16T12:13:13;10.07;;;4.78;;
69256;SDS011;56376;53.356;-1.748;2023-05-16T12:15:39;9.65;;;4.50;;
69256;SDS011;56376;53.356;-1.748;2023-05-16T12:18:05;9.10;;;3.63;;
69256;SDS011;56376;53.356;-1.748;2023-05-16T12:20:31;6.28;;;3.65;;
69256;SDS011;56376;53.356;-1.748;2023-05-16T12:22:57;11.77;;;4.55;;
69256;SDS011;56376;53.356;-1.748;2023-05-16T12:25:32;11.25;;;5.00;;
69256;SDS011;56376;53.356;-1.748;2023-05-16T12:28:05;11.50;;;4.97;;
69256;SDS011;56376;53.356;-1.748;2023-05-16T12:30:32;10.27;;;4.22;;
69256;SDS011;56376;53.356;-1.748;2023-05-16T12:32:58;13.38;;;4.78;;
69256;SDS011;56376;53.356;-1.748;2023-05-16T12:35:29;9.13;;;4.28;;
69256;SDS011;56376;53.356;-1.748;2023-05-16T12:37:56;9.75;;;4.03;;
69256;SDS011;56376;53.356;-1.748;2023-05-16T12:40:22;9.82;;;5.05;;
69256;SDS011;56376;53.356;-1.748;2023-05-16T12:42:48;12.60;;;4.97;;
69256;SDS011;56376;53.356;-1.748;2023-05-16T12:45:17;14.48;;;5.75;;
69256;SDS011;56376;53.356;-1.748;2023-05-16T12:47:43;15.60;;;5.03;;
69256;SDS011;56376;53.356;-1.748;2023-05-16T12:50:10;11.23;;;4.93;;
69256;SDS011;56376;53.356;-1.748;2023-05-16T12:52:44;9.90;;;3.90;;
69256;SDS011;56376;53.356;-1.748;2023-05-16T12:55:22;9.57;;;4.25;;
69256;SDS011;56376;53.356;-1.748;2023-05-16T12:57:47;13.80;;;4.85;;
69256;SDS011;56376;53.356;-1.748;2023-05-16T13:00:14;7.60;;;4.30;;
69256;SDS011;56376;53.356;-1.748;2023-05-16T13:02:43;7.15;;;3.63;;
69256;SDS011;56376;53.356;-1.748;2023-05-16T13:05:09;10.90;;;4.32;;
69256;SDS011;56376;53.356;-1.748;2023-05-16T13:07:34;10.30;;;4.47;;
69256;SDS011;56376;53.356;-1.748;2023-05-16T13:10:01;8.30;;;4.03;;
69256;SDS011;56376;53.356;-1.748;2023-05-16T13:12:26;9.52;;;5.03;;
69256;SDS011;56376;53.356;-1.748;2023-05-16T13:14:52;14.02;;;4.20;;
69256;SDS011;56376;53.356;-1.748;2023-05-16T13:17:18;12.38;;;4.70;;
69256;SDS011;56376;53.356;-1.748;2023-05-16T13:19:43;9.77;;;4.55;;
69256;SDS011;56376;53.356;-1.748;2023-05-16T13:22:09;8.25;;;3.63;;
69256;SDS011;56376;53.356;-1.748;2023-05-16T13:24:34;9.55;;;4.57;;
69256;SDS011;56376;53.356;-1.748;2023-05-16T13:27:00;7.38;;;3.95;;
69256;SDS011;56376;53.356;-1.748;2023-05-16T13:29:25;12.10;;;5.07;;
69256;SDS011;56376;53.356;-1.748;2023-05-16T13:31:51;10.10;;;4.03;;
69256;SDS011;56376;53.356;-1.748;2023-05-16T13:34:16;12.30;;;4.50;;
69256;SDS011;56376;53.356;-1.748;2023-05-16T13:36:41;8.05;;;3.95;;
69256;SDS011;56376;53.356;-1.748;2023-05-16T13:39:07;9.35;;;4.30;;
69256;SDS011;56376;53.356;-1.748;2023-05-16T13:41:32;10.18;;;4.18;;
69256;SDS011;56376;53.356;-1.748;2023-05-16T13:44:02;9.05;;;4.20;;
69256;SDS011;56376;53.356;-1.748;2023-05-16T13:46:27;7.70;;;4.32;;
69256;SDS011;56376;53.356;-1.748;2023-05-16T13:48:53;8.73;;;4.47;;
69256;SDS011;56376;53.356;-1.748;2023-05-16T13:51:18;11.90;;;4.72;;
69256;SDS011;56376;53.356;-1.748;2023-05-16T13:53:43;11.48;;;5.00;;
69256;SDS011;56376;53.356;-1.748;2023-05-16T13:56:09;12.48;;;4.35;;
69256;SDS011;56376;53.356;-1.748;2023-05-16T13:58:34;10.43;;;3.90;;
69256;SDS011;56376;53.356;-1.748;2023-05-16T14:01:01;15.13;;;4.90;;
69256;SDS011;56376;53.356;-1.748;2023-05-16T14:03:26;8.98;;;4.00;;
69256;SDS011;56376;53.356;-1.748;2023-05-16T14:05:51;6.88;;;3.90;;
69256;SDS011;56376;53.356;-1.748;2023-05-16T14:08:17;10.85;;;4.43;;
69256;SDS011;56376;53.356;-1.748;2023-05-16T14:10:42;11.45;;;4.75;;
69256;SDS011;56376;53.356;-1.748;2023-05-16T14:13:07;10.65;;;4.57;;
69256;SDS011;56376;53.356;-1.748;2023-05-16T14:15:33;6.13;;;3.60;;
69256;SDS011;56376;53.356;-1.748;2023-05-16T14:17:58;10.18;;;4.40;;
69256;SDS011;56376;53.356;-1.748;2023-05-16T14:20:23;9.32;;;4.35;;
69256;SDS011;56376;53.356;-1.748;2023-05-16T14:22:49;9.18;;;4.00;;
69256;SDS011;56376;53.356;-1.748;2023-05-16T14:25:14;9.63;;;4.15;;
69256;SDS011;56376;53.356;-1.748;2023-05-16T14:27:40;11.82;;;5.43;;
69256;SDS011;56376;53.356;-1.748;2023-05-16T14:30:05;11.23;;;5.15;;
69256;SDS011;56376;53.356;-1.748;2023-05-16T14:32:32;8.98;;;4.10;;
69256;SDS011;56376;53.356;-1.748;2023-05-16T14:34:57;7.30;;;3.97;;
69256;SDS011;56376;53.356;-1.748;2023-05-16T14:37:23;15.25;;;5.85;;
69256;SDS011;56376;53.356;-1.748;2023-05-16T14:39:48;11.05;;;4.97;;
69256;SDS011;56376;53.356;-1.748;2023-05-16T14:42:14;10.50;;;4.70;;
69256;SDS011;56376;53.356;-1.748;2023-05-16T14:44:40;8.73;;;4.38;;
69256;SDS011;56376;53.356;-1.748;2023-05-16T14:47:06;11.50;;;4.40;;